ORBI METAR and TAF | Updated Today

ORBI METAR

Baghdad International Airport

Observation time: 16 min. ago

ORBI 062000Z 32004KT CAVOK 28/05 Q1009 NOSIG

Need help? Read our tutorial on how to read METARs or read the parsed version below.

Baghdad International Airport (ORBI) METAR

  • Weather conditions on Thu, 06 Oct 2022 20:00:00 +0000 (16 min. ago):
  • Present conditions: Dry
  • Clouds: Clear skies
  • Visibility: Greater than 10 km
  • Wind: 320 degrees at 4 knots
  • Temperature: 28 celsius
  • Dew point: 5 celsius
  • Pressure: 1009 millibars
  • Remarks: None


Useful to know...

ORBI TAF

Baghdad International Airport

TAF ORBI 061600Z 0618/0718 28008KT 8000 NSC
Observation time: 4:16 hr. ago
Need help? Read our tutorial on how to read TAFs or read the parsed version below.

Parsed version of TAF for Baghdad International Airport (ORBI)

  • From 06 October at 18:00 UTC, to day 07 of the month at 18:00 UTC
  • Clouds: No significant clouds are observed
  • Visibility: 8000 meters
  • Wind: 280 degrees at 8

Airports near ORBI

ORBB Weather
Region: Bamarni

Bamarni Airport

Not found in our database